createdAt,value
2023-04-22T00:00:17.055Z,1.10
2023-04-22T00:02:45.742Z,1.38
2023-04-22T00:05:16.656Z,1.40
2023-04-22T00:07:47.773Z,1.25
2023-04-22T00:10:17.811Z,1.30
2023-04-22T00:12:46.397Z,1.40
2023-04-22T00:15:15.046Z,1.35
2023-04-22T00:17:46.002Z,1.42
2023-04-22T00:20:15.297Z,1.27
2023-04-22T00:22:43.896Z,1.35
2023-04-22T00:25:12.166Z,1.45
2023-04-22T00:27:42.097Z,1.42
2023-04-22T00:30:11.033Z,1.30
2023-04-22T00:32:39.493Z,1.38
2023-04-22T00:35:08.852Z,1.10
2023-04-22T00:37:37.112Z,1.30
2023-04-22T00:40:06.912Z,1.17
2023-04-22T00:42:35.422Z,1.00
2023-04-22T00:45:05.968Z,1.15
2023-04-22T00:47:34.366Z,1.02
2023-04-22T00:50:03.519Z,1.33
2023-04-22T00:52:32.078Z,1.15
2023-04-22T00:55:00.654Z,1.38
2023-04-22T00:57:30.904Z,1.20
2023-04-22T00:59:59.652Z,1.30
2023-04-22T01:02:29.871Z,1.02
2023-04-22T01:07:28.591Z,1.45
2023-04-22T01:09:57.741Z,1.25
2023-04-22T01:12:26.047Z,1.27
2023-04-22T01:14:54.541Z,1.27
2023-04-22T01:17:24.770Z,1.10
2023-04-22T01:19:55.638Z,1.10
2023-04-22T01:22:25.063Z,1.00
2023-04-22T01:24:55.361Z,1.00
2023-04-22T01:27:23.812Z,1.08
2023-04-22T01:29:53.169Z,1.15
2023-04-22T01:32:22.595Z,1.40
2023-04-22T01:34:51.125Z,1.42
2023-04-22T01:37:20.094Z,1.35
2023-04-22T01:39:49.177Z,1.15
2023-04-22T01:42:19.116Z,1.40
2023-04-22T01:44:47.480Z,1.20
2023-04-22T01:47:16.333Z,1.80
2023-04-22T01:49:44.634Z,1.70
2023-04-22T01:52:14.654Z,1.85
2023-04-22T01:54:43.110Z,1.80
2023-04-22T01:57:14.360Z,1.58
2023-04-22T01:59:44.584Z,2.10
2023-04-22T02:02:12.913Z,1.90
2023-04-22T02:04:41.245Z,1.80
2023-04-22T02:07:09.554Z,1.60
2023-04-22T02:09:39.699Z,1.60
2023-04-22T02:12:08.284Z,1.48
2023-04-22T02:14:36.571Z,1.40
2023-04-22T02:17:06.228Z,1.30
2023-04-22T02:19:34.891Z,1.30
2023-04-22T02:22:03.268Z,1.38
2023-04-22T02:24:31.531Z,1.30
2023-04-22T02:27:00.391Z,1.80
2023-04-22T02:29:31.582Z,1.27
2023-04-22T02:32:00.248Z,1.42
2023-04-22T02:34:30.580Z,1.38
2023-04-22T02:36:59.124Z,1.55
2023-04-22T02:39:27.482Z,1.42
2023-04-22T02:41:58.274Z,1.50
2023-04-22T02:44:26.650Z,1.30
2023-04-22T02:46:55.708Z,1.05
2023-04-22T02:49:24.058Z,1.23
2023-04-22T02:51:58.843Z,1.50
2023-04-22T02:54:27.179Z,1.35
2023-04-22T02:56:55.686Z,1.33
2023-04-22T02:59:24.297Z,1.40
2023-04-22T03:01:55.968Z,1.20
2023-04-22T03:04:54.598Z,1.40
2023-04-22T03:07:24.994Z,1.23
2023-04-22T03:09:54.608Z,1.20
2023-04-22T03:12:22.872Z,1.13
2023-04-22T03:14:51.140Z,1.20
2023-04-22T03:17:21.086Z,1.20
2023-04-22T03:19:49.292Z,1.15
2023-04-22T03:22:17.551Z,1.00
2023-04-22T03:24:47.839Z,1.25
2023-04-22T03:27:16.505Z,1.50
2023-04-22T03:29:45.058Z,1.48
2023-04-22T03:32:13.442Z,1.30
2023-04-22T03:34:41.907Z,1.05
2023-04-22T03:37:11.775Z,1.25
2023-04-22T03:39:40.817Z,1.10
2023-04-22T03:42:12.494Z,1.30
2023-04-22T03:44:43.965Z,1.40
2023-04-22T03:47:12.500Z,1.17
2023-04-22T03:49:47.327Z,1.05
2023-04-22T03:52:16.203Z,1.33
2023-04-22T03:54:52.269Z,1.27
2023-04-22T03:57:21.997Z,1.20
2023-04-22T03:59:50.416Z,1.45
2023-04-22T04:02:18.808Z,1.17
2023-04-22T04:04:47.655Z,1.10
2023-04-22T04:07:16.787Z,1.15
2023-04-22T04:09:45.155Z,1.63
2023-04-22T04:12:13.695Z,1.10
2023-04-22T04:14:47.161Z,1.17
2023-04-22T04:17:19.488Z,1.92
2023-04-22T04:19:48.518Z,2.17
2023-04-22T04:22:16.757Z,1.77
2023-04-22T04:24:52.563Z,1.80
2023-04-22T04:29:57.066Z,1.60
2023-04-22T04:32:38.144Z,1.80
2023-04-22T04:37:40.397Z,1.65
2023-04-22T04:40:12.378Z,1.27
2023-04-22T04:42:55.751Z,1.30
2023-04-22T04:45:29.982Z,1.13
2023-04-22T04:48:00.682Z,1.35
2023-04-22T04:50:35.607Z,1.30
2023-04-22T04:53:04.718Z,1.52
2023-04-22T04:55:40.270Z,1.40
2023-04-22T04:58:15.897Z,1.60
2023-04-22T05:00:45.869Z,1.42
2023-04-22T05:03:15.856Z,1.30
2023-04-22T05:05:46.317Z,1.58
2023-04-22T05:08:14.696Z,1.38
2023-04-22T05:10:45.165Z,1.40
2023-04-22T05:13:14.209Z,1.65
2023-04-22T05:15:47.865Z,1.20
2023-04-22T05:18:16.761Z,1.42
2023-04-22T05:20:45.295Z,1.55
2023-04-22T05:23:14.023Z,1.77
2023-04-22T05:25:42.471Z,1.60
2023-04-22T05:28:14.362Z,1.35
2023-04-22T05:30:51.353Z,1.52
2023-04-22T05:33:19.872Z,1.83
2023-04-22T05:35:48.194Z,1.98
2023-04-22T05:38:16.602Z,1.40
2023-04-22T05:40:46.254Z,1.90
2023-04-22T05:43:16.514Z,1.58
2023-04-22T05:45:51.943Z,1.38
2023-04-22T05:48:22.690Z,1.48
2023-04-22T05:50:59.736Z,1.30
2023-04-22T05:53:30.850Z,1.35
2023-04-22T05:56:01.672Z,1.60
2023-04-22T05:58:29.968Z,1.10
2023-04-22T06:01:04.347Z,1.30
2023-04-22T06:03:51.034Z,1.60
2023-04-22T06:06:19.664Z,1.50
2023-04-22T06:08:48.963Z,1.30
2023-04-22T06:11:17.436Z,1.23
2023-04-22T06:13:45.647Z,1.48
2023-04-22T06:16:15.613Z,1.40
2023-04-22T06:18:44.422Z,1.50
2023-04-22T06:21:13.686Z,1.33
2023-04-22T06:23:42.260Z,1.58
2023-04-22T06:26:10.583Z,1.30
2023-04-22T06:28:39.848Z,1.40
2023-04-22T06:31:16.531Z,1.40
2023-04-22T06:33:45.947Z,1.20
2023-04-22T06:36:15.015Z,1.50
2023-04-22T06:38:45.398Z,1.58
2023-04-22T06:41:33.996Z,1.15
2023-04-22T06:44:09.478Z,1.00
2023-04-22T06:47:08.832Z,1.13
2023-04-22T06:49:47.784Z,1.38
2023-04-22T06:52:25.851Z,1.40
2023-04-22T06:54:58.108Z,1.13
2023-04-22T06:57:26.359Z,1.25
2023-04-22T06:59:54.639Z,1.20
2023-04-22T07:02:26.670Z,1.45
2023-04-22T07:04:54.994Z,1.20
2023-04-22T07:07:23.435Z,1.00
2023-04-22T07:09:51.947Z,1.23
2023-04-22T07:12:20.373Z,1.98
2023-04-22T07:14:50.706Z,1.10
2023-04-22T07:17:22.375Z,1.00
2023-04-22T07:19:52.070Z,1.00
2023-04-22T07:22:20.895Z,1.08
2023-04-22T07:24:49.241Z,1.17
2023-04-22T07:27:17.639Z,0.93
2023-04-22T07:29:46.038Z,1.15
2023-04-22T07:32:14.324Z,1.25
2023-04-22T07:34:42.619Z,0.93
2023-04-22T07:37:12.274Z,1.30
2023-04-22T07:39:41.510Z,1.10
2023-04-22T07:42:10.375Z,0.98
2023-04-22T07:44:39.634Z,0.95
2023-04-22T07:47:08.815Z,1.10
2023-04-22T07:49:37.599Z,0.90
2023-04-22T07:52:06.432Z,1.10
2023-04-22T07:54:36.433Z,1.10
2023-04-22T07:57:05.002Z,0.90
2023-04-22T07:59:33.219Z,1.13
2023-04-22T08:02:01.512Z,0.90
2023-04-22T08:04:29.940Z,0.90
2023-04-22T08:06:58.406Z,1.10
2023-04-22T08:09:26.590Z,1.10
2023-04-22T08:11:56.717Z,0.85
2023-04-22T08:14:25.063Z,1.10
2023-04-22T08:16:53.352Z,1.10
2023-04-22T08:19:21.950Z,1.15
2023-04-22T08:21:51.700Z,1.05
2023-04-22T08:24:19.923Z,1.10
2023-04-22T08:26:48.201Z,1.30
2023-04-22T08:29:18.006Z,0.90
2023-04-22T08:31:46.469Z,1.02
2023-04-22T08:34:14.807Z,1.00
2023-04-22T08:36:43.585Z,1.05
2023-04-22T08:39:12.647Z,1.23
2023-04-22T08:41:41.425Z,0.90
2023-04-22T08:44:09.827Z,1.00
2023-04-22T08:46:40.508Z,0.90
2023-04-22T08:49:09.696Z,0.90
2023-04-22T08:51:38.291Z,0.90
2023-04-22T08:54:06.981Z,1.00
2023-04-22T08:56:36.896Z,0.90
2023-04-22T08:59:05.646Z,1.20
2023-04-22T09:01:35.237Z,0.80
2023-04-22T09:04:05.346Z,1.10
2023-04-22T09:06:34.632Z,0.90
2023-04-22T09:09:03.368Z,0.88
2023-04-22T09:11:33.374Z,0.75
2023-04-22T09:14:02.527Z,0.90
2023-04-22T09:16:32.140Z,0.90
2023-04-22T09:19:01.402Z,0.70
2023-04-22T09:21:34.635Z,0.90
2023-04-22T09:24:03.476Z,0.80
2023-04-22T09:26:32.682Z,0.60
2023-04-22T09:29:01.231Z,0.70
2023-04-22T09:31:29.911Z,0.75
2023-04-22T09:34:00.942Z,0.73
2023-04-22T09:36:34.063Z,0.70
2023-04-22T09:39:05.117Z,0.80
2023-04-22T09:41:35.411Z,0.85
2023-04-22T09:44:05.000Z,0.90
2023-04-22T09:46:34.896Z,0.70
2023-04-22T09:49:03.704Z,0.70
2023-04-22T09:51:35.452Z,0.80
2023-04-22T09:54:06.406Z,0.80
2023-04-22T09:56:48.153Z,0.63
2023-04-22T10:01:45.303Z,0.82
2023-04-22T10:04:15.478Z,1.00
2023-04-22T10:06:45.187Z,1.17
2023-04-22T10:09:13.780Z,1.27
2023-04-22T10:11:42.344Z,1.08
2023-04-22T10:14:14.019Z,1.10
2023-04-22T10:19:16.652Z,1.20
2023-04-22T10:21:48.569Z,1.10
2023-04-22T10:24:18.317Z,0.90
2023-04-22T10:26:51.459Z,0.90
2023-04-22T10:29:22.601Z,1.00
2023-04-22T10:31:58.510Z,1.00
2023-04-22T10:34:26.889Z,1.15
2023-04-22T10:36:59.362Z,1.05
2023-04-22T10:39:28.839Z,1.13
2023-04-22T10:42:10.187Z,1.30
2023-04-22T10:44:50.215Z,1.20
2023-04-22T10:47:37.087Z,1.35
2023-04-22T10:50:26.585Z,1.02
2023-04-22T10:52:59.225Z,1.15
2023-04-22T10:55:48.138Z,1.10
2023-04-22T10:58:21.175Z,1.30
2023-04-22T11:00:54.532Z,0.98
2023-04-22T11:03:29.008Z,1.00
2023-04-22T11:06:17.072Z,0.85
2023-04-22T11:08:51.264Z,1.17
2023-04-22T11:11:20.134Z,1.00
2023-04-22T11:13:50.478Z,1.00
2023-04-22T11:16:23.542Z,1.10
2023-04-22T11:18:51.990Z,1.08
2023-04-22T11:21:23.011Z,1.20
2023-04-22T11:23:53.618Z,1.08
2023-04-22T11:26:34.789Z,1.10
2023-04-22T11:29:03.519Z,1.13
2023-04-22T11:31:31.891Z,1.00
2023-04-22T11:34:00.707Z,1.13
2023-04-22T11:36:29.076Z,1.10
2023-04-22T11:38:58.939Z,1.20
2023-04-22T11:41:30.128Z,1.00
2023-04-22T11:43:58.538Z,1.00
2023-04-22T11:46:31.418Z,1.00
2023-04-22T11:49:13.820Z,1.00
2023-04-22T11:51:54.642Z,0.98
2023-04-22T11:54:34.163Z,0.93
2023-04-22T11:57:04.388Z,0.90
2023-04-22T11:59:32.633Z,1.00
2023-04-22T12:02:01.178Z,1.08
2023-04-22T12:04:29.455Z,1.27
2023-04-22T12:06:58.056Z,1.20
2023-04-22T12:09:26.816Z,1.23
2023-04-22T12:11:56.927Z,1.10
2023-04-22T12:14:32.929Z,1.00
2023-04-22T12:17:05.572Z,1.17
2023-04-22T12:19:33.903Z,1.10
2023-04-22T12:22:02.210Z,0.90
2023-04-22T12:24:31.215Z,1.00
2023-04-22T12:27:01.305Z,0.93
2023-04-22T12:29:32.523Z,0.95
2023-04-22T12:32:01.171Z,1.30
2023-04-22T12:34:29.528Z,1.10
2023-04-22T12:36:58.081Z,1.15
2023-04-22T12:39:26.327Z,1.00
2023-04-22T12:41:54.592Z,1.00
2023-04-22T12:44:25.169Z,1.10
2023-04-22T12:46:56.407Z,1.10
2023-04-22T12:49:25.157Z,1.30
2023-04-22T12:51:53.705Z,1.05
2023-04-22T12:54:22.347Z,1.50
2023-04-22T12:56:50.622Z,1.30
2023-04-22T12:59:18.856Z,1.45
2023-04-22T13:01:48.582Z,1.27
2023-04-22T13:04:17.001Z,1.13
2023-04-22T13:06:45.343Z,1.55
2023-04-22T13:09:13.712Z,1.02
2023-04-22T13:11:42.159Z,1.30
2023-04-22T13:14:10.604Z,1.10
2023-04-22T13:16:38.986Z,1.30
2023-04-22T13:19:08.803Z,1.38
2023-04-22T13:21:37.200Z,1.30
2023-04-22T13:24:05.853Z,1.10
2023-04-22T13:26:36.405Z,1.30
2023-04-22T13:29:06.859Z,1.15
2023-04-22T13:31:38.936Z,1.30
2023-04-22T13:34:08.657Z,1.52
2023-04-22T13:36:37.028Z,1.30
2023-04-22T13:39:06.193Z,1.27
2023-04-22T13:41:34.478Z,1.45
2023-04-22T13:44:04.448Z,1.48
2023-04-22T13:46:32.766Z,1.08
2023-04-22T13:49:00.951Z,1.23
2023-04-22T13:51:32.194Z,1.27
2023-04-22T13:54:00.701Z,0.90
2023-04-22T13:56:28.990Z,1.27
2023-04-22T13:58:58.265Z,1.10
2023-04-22T14:01:26.907Z,0.98
2023-04-22T14:03:55.820Z,1.30
2023-04-22T14:06:24.211Z,1.42
2023-04-22T14:08:53.864Z,1.77
2023-04-22T14:11:22.072Z,1.08
2023-04-22T14:13:50.447Z,1.10
2023-04-22T14:16:19.836Z,1.33
2023-04-22T14:18:48.760Z,1.17
2023-04-22T14:21:17.124Z,1.10
2023-04-22T14:23:45.873Z,1.50
2023-04-22T14:26:15.473Z,1.15
2023-04-22T14:28:44.036Z,1.30
2023-04-22T14:31:15.077Z,1.52
2023-04-22T14:33:43.432Z,1.20
2023-04-22T14:36:11.754Z,1.40
2023-04-22T14:38:40.054Z,1.42
2023-04-22T14:41:08.266Z,1.15
2023-04-22T14:43:37.858Z,1.60
2023-04-22T14:46:06.409Z,1.48
2023-04-22T14:48:39.279Z,1.27
2023-04-22T14:51:07.654Z,1.30
2023-04-22T14:53:35.988Z,1.27
2023-04-22T14:56:04.391Z,1.48
2023-04-22T14:58:32.654Z,1.42
2023-04-22T15:01:02.388Z,1.48
2023-04-22T15:03:30.940Z,1.58
2023-04-22T15:06:02.090Z,1.35
2023-04-22T15:08:30.446Z,1.50
2023-04-22T15:10:59.866Z,2.05
2023-04-22T15:13:28.348Z,1.95
2023-04-22T15:15:56.624Z,1.77
2023-04-22T15:18:27.539Z,1.58
2023-04-22T15:20:55.890Z,1.67
2023-04-22T15:23:24.355Z,1.63
2023-04-22T15:25:52.761Z,1.90
2023-04-22T15:28:21.239Z,1.85
2023-04-22T15:30:50.164Z,1.90
2023-04-22T15:33:18.360Z,1.55
2023-04-22T15:35:50.047Z,2.00
2023-04-22T15:40:47.009Z,2.00
2023-04-22T15:43:15.344Z,2.00
2023-04-22T15:45:43.535Z,1.90
2023-04-22T15:48:11.881Z,1.85
2023-04-22T15:50:40.829Z,1.70
2023-04-22T15:53:10.405Z,2.53
2023-04-22T15:55:38.667Z,2.03
2023-04-22T15:58:06.988Z,1.80
2023-04-22T16:00:35.668Z,1.80
2023-04-22T16:03:04.260Z,1.92
2023-04-22T16:05:34.732Z,1.80
2023-04-22T16:08:03.565Z,1.90
2023-04-22T16:10:33.192Z,1.90
2023-04-22T16:13:01.590Z,1.70
2023-04-22T16:15:29.839Z,2.00
2023-04-22T16:18:00.032Z,1.73
2023-04-22T16:20:28.407Z,1.83
2023-04-22T16:22:56.674Z,1.70
2023-04-22T16:25:25.014Z,1.77
2023-04-22T16:27:55.054Z,1.67
2023-04-22T16:30:23.666Z,2.08
2023-04-22T16:32:52.111Z,1.50
2023-04-22T16:35:20.597Z,1.70
2023-04-22T16:37:48.943Z,1.80
2023-04-22T16:40:17.235Z,1.90
2023-04-22T16:42:45.923Z,1.60
2023-04-22T16:45:16.692Z,1.60
2023-04-22T16:47:47.860Z,1.63
2023-04-22T16:50:17.192Z,1.80
2023-04-22T16:52:45.484Z,1.75
2023-04-22T16:55:13.859Z,1.70
2023-04-22T16:57:44.725Z,1.60
2023-04-22T17:00:15.720Z,1.65
2023-04-22T17:02:44.046Z,2.00
2023-04-22T17:05:15.414Z,1.73
2023-04-22T17:07:43.776Z,1.52
2023-04-22T17:10:12.392Z,1.70
2023-04-22T17:12:41.283Z,1.73
2023-04-22T17:15:10.591Z,1.65
2023-04-22T17:17:40.197Z,1.90
2023-04-22T17:20:09.322Z,1.60
2023-04-22T17:22:37.686Z,1.65
2023-04-22T17:25:06.698Z,2.30
2023-04-22T17:27:34.981Z,1.90
2023-04-22T17:30:03.344Z,2.15
2023-04-22T17:32:31.651Z,1.77
2023-04-22T17:35:02.711Z,2.20
2023-04-22T17:37:31.131Z,2.00
2023-04-22T17:39:59.616Z,2.20
2023-04-22T17:42:38.703Z,2.10
2023-04-22T17:45:12.467Z,1.85
2023-04-22T17:47:40.798Z,1.88
2023-04-22T17:50:11.221Z,2.00
2023-04-22T17:52:39.600Z,1.90
2023-04-22T17:55:09.173Z,1.80
2023-04-22T17:57:37.700Z,2.15
2023-04-22T18:00:08.333Z,1.90
2023-04-22T18:02:36.985Z,2.10
2023-04-22T18:05:05.826Z,107.10
2023-04-22T18:07:35.558Z,86.18
2023-04-22T18:10:03.893Z,167.73
2023-04-22T18:12:32.340Z,132.95
2023-04-22T18:15:00.941Z,113.40
2023-04-22T18:17:29.175Z,102.55
2023-04-22T18:20:09.742Z,60.42
2023-04-22T18:22:44.420Z,60.25
2023-04-22T18:25:12.820Z,42.78
2023-04-22T18:27:41.256Z,51.20
2023-04-22T18:30:10.251Z,77.32
2023-04-22T18:32:38.988Z,65.30
2023-04-22T18:35:08.415Z,95.25
2023-04-22T18:37:36.757Z,118.82
2023-04-22T18:40:08.176Z,84.97
2023-04-22T18:42:36.798Z,72.95
2023-04-22T18:45:06.669Z,55.10
2023-04-22T18:47:35.047Z,73.70
2023-04-22T18:50:03.392Z,52.63
2023-04-22T18:52:31.618Z,72.15
2023-04-22T18:54:59.921Z,49.35
2023-04-22T18:57:29.544Z,38.55
2023-04-22T18:59:57.878Z,33.90
2023-04-22T19:02:26.290Z,28.00
2023-04-22T19:04:55.063Z,23.90
2023-04-22T19:07:23.366Z,19.30
2023-04-22T19:09:51.643Z,17.90
2023-04-22T19:12:20.138Z,14.50
2023-04-22T19:14:49.676Z,13.32
2023-04-22T19:17:18.857Z,12.38
2023-04-22T19:19:47.230Z,10.25
2023-04-22T19:22:17.451Z,10.38
2023-04-22T19:24:46.417Z,76.95
2023-04-22T19:27:15.820Z,47.00
2023-04-22T19:29:51.199Z,61.00
2023-04-22T19:32:21.816Z,70.53
2023-04-22T19:34:50.944Z,68.10
2023-04-22T19:37:19.392Z,67.25
2023-04-22T19:39:47.622Z,91.38
2023-04-22T19:42:16.188Z,86.07
2023-04-22T19:44:46.797Z,77.47
2023-04-22T19:47:15.987Z,118.60
2023-04-22T19:49:48.814Z,90.35
2023-04-22T19:52:17.858Z,76.57
2023-04-22T19:54:49.796Z,111.88
2023-04-22T19:57:18.443Z,150.27
2023-04-22T19:59:47.193Z,232.65
2023-04-22T20:02:15.937Z,203.35
2023-04-22T20:04:46.212Z,161.18
2023-04-22T20:07:15.363Z,189.13
2023-04-22T20:09:46.619Z,193.52
2023-04-22T20:12:15.146Z,150.55
2023-04-22T20:14:45.019Z,159.23
2023-04-22T20:17:13.540Z,191.82
2023-04-22T20:19:42.178Z,196.68
2023-04-22T20:22:14.762Z,286.58
2023-04-22T20:24:43.956Z,240.75
2023-04-22T20:27:12.770Z,266.13
2023-04-22T20:29:41.553Z,243.85
2023-04-22T20:32:11.359Z,263.75
2023-04-22T20:34:40.287Z,137.02
2023-04-22T20:37:12.314Z,108.97
2023-04-22T20:39:44.573Z,144.68
2023-04-22T20:42:14.708Z,162.48
2023-04-22T20:44:43.355Z,196.10
2023-04-22T20:47:12.034Z,228.18
2023-04-22T20:49:41.940Z,242.02
2023-04-22T20:52:11.041Z,205.20
2023-04-22T20:54:41.247Z,162.82
2023-04-22T20:57:10.097Z,133.52
2023-04-22T20:59:38.345Z,129.98
2023-04-22T21:02:07.830Z,107.90
2023-04-22T21:04:36.668Z,94.22
2023-04-22T21:07:07.189Z,81.50
2023-04-22T21:09:36.200Z,71.43
2023-04-22T21:12:06.704Z,66.60
2023-04-22T21:14:35.414Z,49.95
2023-04-22T21:17:06.356Z,51.25
2023-04-22T21:19:35.319Z,45.20
2023-04-22T21:22:06.288Z,38.28
2023-04-22T21:24:36.079Z,36.97
2023-04-22T21:27:07.964Z,30.70
2023-04-22T21:29:38.106Z,33.47
2023-04-22T21:32:09.641Z,26.85
2023-04-22T21:34:38.941Z,27.55
2023-04-22T21:37:08.306Z,24.48
2023-04-22T21:39:36.704Z,19.05
2023-04-22T21:42:08.543Z,20.05
2023-04-22T21:44:37.736Z,19.52
2023-04-22T21:47:07.013Z,14.73
2023-04-22T21:49:35.875Z,15.70
2023-04-22T21:52:04.055Z,16.27
2023-04-22T21:54:32.340Z,13.48
2023-04-22T21:57:01.228Z,12.68
2023-04-22T21:59:31.486Z,12.50
2023-04-22T22:01:59.870Z,11.90
2023-04-22T22:04:28.517Z,11.43
2023-04-22T22:06:57.027Z,9.80
2023-04-22T22:09:26.542Z,10.65
2023-04-22T22:11:54.786Z,10.25
2023-04-22T22:14:23.054Z,10.15
2023-04-22T22:16:53.900Z,10.10
2023-04-22T22:19:22.464Z,10.43
2023-04-22T22:21:50.657Z,9.35
2023-04-22T22:24:19.021Z,8.65
2023-04-22T22:26:47.688Z,8.65
2023-04-22T22:29:16.223Z,8.30
2023-04-22T22:31:44.802Z,8.13
2023-04-22T22:34:14.437Z,7.90
2023-04-22T22:36:42.710Z,7.13
2023-04-22T22:39:14.406Z,6.57
2023-04-22T22:44:12.481Z,6.28
2023-04-22T22:46:41.512Z,6.03
2023-04-22T22:49:10.392Z,5.70
2023-04-22T22:51:40.082Z,6.38
2023-04-22T22:54:08.503Z,5.43
2023-04-22T22:56:36.788Z,5.57
2023-04-22T22:59:05.019Z,5.55
2023-04-22T23:01:33.485Z,5.53
2023-04-22T23:04:02.377Z,5.70
2023-04-22T23:06:31.902Z,5.38
2023-04-22T23:09:01.615Z,5.22
2023-04-22T23:11:29.830Z,5.28
2023-04-22T23:13:58.079Z,4.80
2023-04-22T23:16:27.060Z,5.05
2023-04-22T23:18:57.520Z,5.22
2023-04-22T23:21:26.295Z,4.78
2023-04-22T23:23:56.018Z,4.70
2023-04-22T23:26:26.351Z,4.70
2023-04-22T23:28:55.446Z,4.47
2023-04-22T23:31:25.043Z,4.65
2023-04-22T23:33:55.118Z,3.97
2023-04-22T23:36:24.219Z,4.53
2023-04-22T23:38:52.436Z,4.25
2023-04-22T23:41:20.877Z,3.95
2023-04-22T23:43:50.408Z,4.32
2023-04-22T23:46:18.948Z,3.90
2023-04-22T23:48:48.048Z,3.80
2023-04-22T23:51:17.266Z,3.88
2023-04-22T23:53:46.621Z,3.97
2023-04-22T23:56:20.119Z,4.20
2023-04-22T23:58:50.929Z,3.92
